首页
METAR-TAF:

METAR-TAF

机场 :

南宁, 中华人民共和国

南宁吴圩国际机场

纬度: 22-49N, 经度: 108-21E, 海拔: 73米

当前天气观测

该预报发布于48分钟前的05:00 UTC
风速6节,风向
温度 18°C
湿度 77%
气压 1021 hPa
能见度10公里或以上
少量云层高于1300英尺
阴天层高于3600英尺

METAR: ZGNN 250500Z 36003MPS 9999 FEW013 OVC036 18/14 Q1021 NOSIG

时间: 13:48 (05:48 UTC)

预报

该预报发布于2小时和42分钟前的03:06 UTC
预报有效从25日的 06点(UTC)到 26日的 06点(UTC)
风速6节,风向
能見度: 6000
散云层高于1300英尺
多云层高于3000英尺

TAF: ZGNN 250306Z 2506/2606 08003MPS 6000 SCT013 BKN030 TX20/2506Z TN13/2522Z

超过4000个机场的气象观测和天气预报(METAR&TAF报告)。

可查询的气象台以黄色和红色小点在地图上表示。

将鼠标移到小点上方,可查看气象台名称。

然后点击查看天气观测和预报。

如需切换地图:点击带黑十字的绿色按钮放大地图;点击带横线的绿色按钮缩小地图;或者点击绿色箭头查看邻近地区的地图。


METAR-TAF: